Time;durP1;ratioP1;P1;durP2;ratioP2;P2;SDS_P1;SDS_P2;PMS_P1;PMS_P2;Temp;Humidity;BMP_temperature;BMP_pressure;BME280_temperature;BME280_humidity;BME280_pressure;Samples;Min_cycle;Max_cycle;Signal;HPM_P1;HPM_P2
2023/10/02 00:00:39;;;;;;;10.88;6.20;;;18.80;99.90;;;;;;5070670;28;20177;-87
2023/10/02 00:03:09;;;;;;;10.48;6.00;;;18.70;99.90;;;;;;5075116;28;20168;-87
2023/10/02 00:05:40;;;;;;;9.90;5.55;;;18.70;99.90;;;;;;5066796;28;20204;-89
2023/10/02 00:08:25;;;;;;;11.38;6.32;;;18.70;99.90;;;;;;5069605;28;20176;-87
2023/10/02 00:10:54;;;;;;;9.27;5.70;;;18.60;99.90;;;;;;5059838;28;20243;-88
2023/10/02 00:13:21;;;;;;;8.65;5.10;;;18.60;99.90;;;;;;5074809;28;20198;-89
2023/10/02 00:15:47;;;;;;;10.18;5.72;;;18.60;99.90;;;;;;5077004;28;20172;-87
2023/10/02 00:18:18;;;;;;;11.05;6.07;;;18.50;99.90;;;;;;5075830;28;20273;-90
2023/10/02 00:20:44;;;;;;;9.57;5.05;;;18.50;99.90;;;;;;5075428;28;20172;-87
2023/10/02 00:23:11;;;;;;;11.32;6.35;;;18.50;99.90;;;;;;5076336;28;20187;-88
2023/10/02 00:25:51;;;;;;;10.30;5.82;;;18.50;99.90;;;;;;5075350;28;20215;-87
2023/10/02 00:28:30;;;;;;;9.07;5.63;;;18.50;99.90;;;;;;5075803;28;20187;-88
2023/10/02 00:30:58;;;;;;;9.35;5.63;;;18.40;99.90;;;;;;5072334;28;20193;-89
2023/10/02 00:33:27;;;;;;;11.10;6.30;;;18.40;99.90;;;;;;5065486;28;20183;-91
2023/10/02 00:35:56;;;;;;;9.43;5.60;;;18.40;99.90;;;;;;5076040;28;20169;-90
2023/10/02 00:38:24;;;;;;;11.05;5.57;;;18.40;99.90;;;;;;5076025;28;20246;-85
2023/10/02 00:40:50;;;;;;;10.45;5.20;;;18.30;99.90;;;;;;5072391;28;20292;-89
2023/10/02 00:43:34;;;;;;;9.95;5.75;;;18.30;99.90;;;;;;5075645;28;20201;-83
2023/10/02 00:45:59;;;;;;;10.13;5.93;;;18.30;99.90;;;;;;5068329;28;20212;-86
2023/10/02 00:48:28;;;;;;;9.00;5.10;;;18.30;99.90;;;;;;5069224;28;20181;-89
2023/10/02 00:50:59;;;;;;;9.45;5.63;;;18.20;99.90;;;;;;5076344;28;20237;-87
2023/10/02 00:53:46;;;;;;;9.32;5.65;;;18.20;99.90;;;;;;5066626;28;20173;-78
2023/10/02 00:56:21;;;;;;;9.73;5.72;;;18.20;99.90;;;;;;5073488;28;20245;-82
2023/10/02 00:59:00;;;;;;;10.65;6.03;;;18.10;99.90;;;;;;5080212;28;20207;-88
2023/10/02 01:01:31;;;;;;;10.52;6.10;;;18.10;99.90;;;;;;5078460;28;20177;-84
2023/10/02 01:04:23;;;;;;;9.10;5.38;;;18.10;99.90;;;;;;5066634;28;20193;-89
2023/10/02 01:09:27;;;;;;;10.32;5.93;;;18.10;99.90;;;;;;5076050;28;20192;-79
2023/10/02 01:12:00;;;;;;;10.57;5.82;;;18.00;99.90;;;;;;5068922;28;20268;-88
2023/10/02 01:17:16;;;;;;;11.00;5.43;;;18.00;99.90;;;;;;5063338;28;20207;-90
2023/10/02 01:19:54;;;;;;;9.57;5.68;;;17.90;99.90;;;;;;5063785;28;20394;-90
2023/10/02 01:22:27;;;;;;;11.07;5.93;;;17.90;99.90;;;;;;5074510;28;21013;-89
2023/10/02 01:25:13;;;;;;;11.02;5.95;;;17.90;99.90;;;;;;5070593;28;20177;-90
2023/10/02 01:27:48;;;;;;;9.90;5.53;;;17.90;99.90;;;;;;5076328;28;20438;-89
2023/10/02 01:30:22;;;;;;;10.15;5.63;;;17.80;99.90;;;;;;5065209;28;20215;-88
2023/10/02 01:35:56;;;;;;;10.70;6.07;;;17.80;99.90;;;;;;5079163;28;20253;-84
2023/10/02 01:38:31;;;;;;;10.13;5.50;;;17.80;99.90;;;;;;5078396;28;20271;-90
2023/10/02 01:41:06;;;;;;;10.68;6.05;;;17.80;99.90;;;;;;5072549;28;20175;-79
2023/10/02 01:43:44;;;;;;;10.57;5.80;;;17.80;99.90;;;;;;5088834;28;20223;-83
2023/10/02 01:46:17;;;;;;;9.50;5.57;;;17.70;99.90;;;;;;5077047;28;20184;-89
2023/10/02 01:48:48;;;;;;;9.07;5.50;;;17.70;99.90;;;;;;5078790;28;20200;-88
2023/10/02 01:54:15;;;;;;;9.95;5.75;;;17.70;99.90;;;;;;5078923;28;20176;-89
2023/10/02 01:56:45;;;;;;;11.75;6.10;;;17.70;99.90;;;;;;5073624;28;20209;-86
2023/10/02 01:59:14;;;;;;;11.07;5.78;;;17.70;99.90;;;;;;5067215;28;20188;-90
2023/10/02 02:01:51;;;;;;;9.95;5.72;;;17.70;99.90;;;;;;5076646;28;20218;-88
2023/10/02 02:04:24;;;;;;;9.02;5.28;;;17.70;99.90;;;;;;5077951;28;20200;-89
2023/10/02 02:06:57;;;;;;;11.15;5.78;;;17.70;99.90;;;;;;5078115;28;20192;-89
2023/10/02 02:09:36;;;;;;;10.88;6.00;;;17.70;99.90;;;;;;5077679;28;20228;-88
2023/10/02 02:12:14;;;;;;;9.88;5.55;;;17.70;99.90;;;;;;5077365;28;20176;-85
2023/10/02 02:14:49;;;;;;;11.10;6.13;;;17.70;99.90;;;;;;5077228;28;20278;-90
2023/10/02 02:17:20;;;;;;;10.10;5.85;;;17.60;99.90;;;;;;5077429;28;20196;-87
2023/10/02 02:19:50;;;;;;;10.02;5.72;;;17.60;99.90;;;;;;5071765;28;20193;-88
2023/10/02 02:22:26;;;;;;;10.55;5.75;;;17.60;99.90;;;;;;5059860;28;20193;-84
2023/10/02 02:24:53;;;;;;;10.43;5.40;;;17.60;99.90;;;;;;5057767;28;20192;-88
2023/10/02 02:27:19;;;;;;;8.90;5.45;;;17.60;99.90;;;;;;5091406;28;20238;-87
2023/10/02 02:29:54;;;;;;;9.50;6.03;;;17.60;99.90;;;;;;5076105;28;20224;-86
2023/10/02 02:32:36;;;;;;;9.13;5.22;;;17.60;99.90;;;;;;5084186;28;20290;-87
2023/10/02 02:35:14;;;;;;;10.77;5.68;;;17.50;99.90;;;;;;5085353;28;20195;-87
2023/10/02 02:37:41;;;;;;;9.70;5.95;;;17.50;99.90;;;;;;5086721;28;20195;-88
2023/10/02 02:40:24;;;;;;;10.68;5.72;;;17.50;99.90;;;;;;5078243;28;20177;-88
2023/10/02 02:42:51;;;;;;;10.40;5.57;;;17.50;99.90;;;;;;5077012;28;20196;-86
2023/10/02 02:45:28;;;;;;;10.00;6.05;;;17.50;99.90;;;;;;5061778;28;20177;-87
2023/10/02 02:48:10;;;;;;;8.52;5.40;;;17.50;99.90;;;;;;5077713;28;20176;-89
2023/10/02 02:50:44;;;;;;;11.30;6.00;;;17.50;99.90;;;;;;5074850;28;20215;-88
2023/10/02 02:53:21;;;;;;;10.63;5.97;;;17.50;99.90;;;;;;5076800;28;20176;-88
2023/10/02 02:56:24;;;;;;;12.18;6.22;;;17.50;99.90;;;;;;5076972;28;20200;-84
2023/10/02 02:58:55;;;;;;;8.90;5.45;;;17.50;99.90;;;;;;5071874;28;20205;-88
2023/10/02 03:01:22;;;;;;;9.27;5.55;;;17.50;99.90;;;;;;5076850;28;20199;-88
2023/10/02 03:03:55;;;;;;;11.40;5.72;;;17.50;99.90;;;;;;5076913;28;20271;-88
2023/10/02 03:06:24;;;;;;;10.15;5.63;;;17.50;99.90;;;;;;5076453;28;20230;-87
2023/10/02 03:08:51;;;;;;;9.55;5.57;;;17.50;99.90;;;;;;5074288;28;20213;-89
2023/10/02 03:11:28;;;;;;;11.18;5.95;;;17.50;99.90;;;;;;5060083;28;20176;-88
2023/10/02 03:14:11;;;;;;;10.43;5.47;;;17.50;99.90;;;;;;5058867;28;20173;-84
2023/10/02 03:16:38;;;;;;;10.15;5.78;;;17.50;99.90;;;;;;5074588;28;20196;-84
2023/10/02 03:19:07;;;;;;;10.57;5.93;;;17.60;99.90;;;;;;5072330;28;20177;-88
2023/10/02 03:21:37;;;;;;;10.88;6.20;;;17.60;99.90;;;;;;5067228;28;20177;-87
2023/10/02 03:24:04;;;;;;;9.63;5.72;;;17.50;99.90;;;;;;5077047;28;20233;-89
2023/10/02 03:29:16;;;;;;;9.48;5.90;;;17.50;99.90;;;;;;5076828;28;20200;-87
2023/10/02 03:31:43;;;;;;;9.40;5.63;;;17.50;99.90;;;;;;5076033;28;20260;-85
2023/10/02 03:34:29;;;;;;;16.25;9.88;;;17.50;99.90;;;;;;5076835;28;20184;-86
2023/10/02 03:37:00;;;;;;;24.27;17.30;;;17.50;99.90;;;;;;5123733;22;20211;-85
2023/10/02 03:42:23;;;;;;;12.65;7.53;;;17.50;99.90;;;;;;5074747;28;20269;-85
2023/10/02 03:44:50;;;;;;;13.05;8.23;;;17.50;99.90;;;;;;5075179;28;20177;-85
2023/10/02 03:47:20;;;;;;;14.75;8.80;;;17.50;99.90;;;;;;5074734;28;20169;-89
2023/10/02 03:49:46;;;;;;;11.82;7.45;;;17.50;99.90;;;;;;5089978;28;20265;-90
2023/10/02 03:52:17;;;;;;;12.10;7.72;;;17.50;99.90;;;;;;5069193;28;20210;-88
2023/10/02 03:54:44;;;;;;;10.43;6.30;;;17.50;99.90;;;;;;5075466;28;20180;-90
2023/10/02 03:57:37;;;;;;;12.57;6.78;;;17.40;99.90;;;;;;5072328;28;20282;-89
2023/10/02 04:00:18;;;;;;;11.95;6.82;;;17.40;99.90;;;;;;5075307;28;20220;-80
2023/10/02 04:02:45;;;;;;;18.05;11.43;;;17.40;99.90;;;;;;5063957;28;20200;-88
2023/10/02 04:05:30;;;;;;;12.27;8.13;;;17.40;99.90;;;;;;5070203;28;20177;-77
2023/10/02 04:08:17;;;;;;;11.55;7.25;;;17.40;99.90;;;;;;5062574;28;20200;-89
2023/10/02 04:10:56;;;;;;;10.32;6.88;;;17.40;99.90;;;;;;5070132;28;20249;-87
2023/10/02 04:13:31;;;;;;;10.20;5.90;;;17.40;99.90;;;;;;5072883;28;20187;-88
2023/10/02 04:18:47;;;;;;;10.63;5.78;;;17.40;99.90;;;;;;5070921;28;20343;-88
2023/10/02 04:21:22;;;;;;;10.88;6.13;;;17.40;99.90;;;;;;5066333;28;20185;-89
2023/10/02 04:23:55;;;;;;;10.98;6.50;;;17.30;99.90;;;;;;5070397;28;20207;-89
2023/10/02 04:26:28;;;;;;;11.25;6.93;;;17.30;99.90;;;;;;5055281;28;20173;-89
2023/10/02 04:29:09;;;;;;;11.95;7.28;;;17.30;99.90;;;;;;5083677;28;20204;-88
2023/10/02 04:31:41;;;;;;;10.35;5.90;;;17.30;99.90;;;;;;5067862;28;20195;-83
2023/10/02 04:34:24;;;;;;;11.43;6.68;;;17.30;99.90;;;;;;5079520;28;20237;-90
2023/10/02 04:36:51;;;;;;;12.20;6.28;;;17.30;99.90;;;;;;5054967;28;20200;-90
2023/10/02 04:42:25;;;;;;;11.70;6.50;;;17.20;99.90;;;;;;5075825;28;20157;-89
2023/10/02 04:45:20;;;;;;;11.10;6.32;;;17.20;99.90;;;;;;5075259;28;20207;-90
2023/10/02 04:47:54;;;;;;;12.15;6.43;;;17.20;99.90;;;;;;5063210;28;20177;-89
2023/10/02 04:52:58;;;;;;;10.73;5.95;;;17.20;99.90;;;;;;5056521;28;20161;-86
2023/10/02 04:55:31;;;;;;;12.43;6.70;;;17.10;99.90;;;;;;5056581;28;20279;-87
2023/10/02 04:58:15;;;;;;;11.32;6.15;;;17.10;99.90;;;;;;5075599;28;20225;-88
2023/10/02 05:03:53;;;;;;;11.77;6.05;;;17.20;99.90;;;;;;5056887;28;20284;-81
2023/10/02 05:11:52;;;;;;;12.93;6.40;;;17.30;99.90;;;;;;5075635;28;20256;-87
2023/10/02 05:14:26;;;;;;;10.25;6.10;;;17.30;99.90;;;;;;5074053;28;20172;-87
2023/10/02 05:16:52;;;;;;;11.07;5.88;;;17.30;99.90;;;;;;5070756;28;20169;-89
2023/10/02 05:19:46;;;;;;;10.55;6.22;;;17.30;99.90;;;;;;5064110;28;20255;-88
2023/10/02 05:22:08;;;;;;;10.52;5.70;;;17.40;99.90;;;;;;5076573;28;20231;-90
2023/10/02 05:24:34;;;;;;;10.50;5.57;;;17.40;99.90;;;;;;5075885;28;20172;-82
2023/10/02 05:27:03;;;;;;;12.13;6.18;;;17.30;99.90;;;;;;5074308;28;20180;-79
2023/10/02 05:29:41;;;;;;;11.73;6.40;;;17.30;99.90;;;;;;5084708;28;20209;-87
2023/10/02 05:32:19;;;;;;;12.52;6.70;;;17.40;99.90;;;;;;5075657;28;20188;-89
2023/10/02 05:35:16;;;;;;;12.65;6.70;;;17.30;99.90;;;;;;5073218;28;20181;-90
2023/10/02 05:37:51;;;;;;;11.52;6.38;;;17.30;99.90;;;;;;5070115;28;20184;-84
2023/10/02 05:43:17;;;;;;;13.30;7.13;;;17.30;99.90;;;;;;5076057;28;20201;-88
2023/10/02 05:48:15;;;;;;;12.25;6.35;;;17.30;99.90;;;;;;5076270;28;20189;-84
2023/10/02 05:50:52;;;;;;;11.85;6.57;;;17.30;99.90;;;;;;5073123;28;20200;-87
2023/10/02 05:53:25;;;;;;;12.95;7.15;;;17.30;99.90;;;;;;5078571;28;20208;-87
2023/10/02 05:55:57;;;;;;;12.30;6.93;;;17.30;99.90;;;;;;5092110;28;20180;-89
2023/10/02 05:58:31;;;;;;;12.38;6.55;;;17.30;99.90;;;;;;5080244;28;20187;-73
2023/10/02 06:01:16;;;;;;;12.25;6.80;;;17.30;99.90;;;;;;5074145;28;20203;-72
2023/10/02 06:03:42;;;;;;;10.82;6.32;;;17.30;99.90;;;;;;5073505;28;20187;-73
2023/10/02 06:06:18;;;;;;;11.20;6.05;;;17.30;99.90;;;;;;5070402;28;20193;-73
2023/10/02 06:08:48;;;;;;;10.07;6.30;;;17.30;99.90;;;;;;5085448;28;20271;-73
2023/10/02 06:11:31;;;;;;;10.63;6.82;;;17.30;99.90;;;;;;5070070;28;20204;-72
2023/10/02 06:14:14;;;;;;;10.60;6.20;;;17.30;99.90;;;;;;5076726;28;20307;-72
2023/10/02 06:16:48;;;;;;;10.00;6.10;;;17.30;99.90;;;;;;5077968;28;20226;-72
2023/10/02 06:19:14;;;;;;;10.88;6.70;;;17.30;99.90;;;;;;5077210;28;20195;-71
2023/10/02 06:21:46;;;;;;;10.60;6.35;;;17.30;99.90;;;;;;5078326;28;20176;-72
2023/10/02 06:24:27;;;;;;;9.70;6.18;;;17.30;99.90;;;;;;5078026;28;20200;-72
2023/10/02 06:27:13;;;;;;;11.00;6.32;;;17.30;99.90;;;;;;5077735;28;20172;-72
2023/10/02 06:29:40;;;;;;;10.73;6.40;;;17.40;99.90;;;;;;5072374;28;20205;-70
2023/10/02 06:32:11;;;;;;;13.15;6.00;;;17.40;99.90;;;;;;5057535;28;20162;-72
2023/10/02 06:34:38;;;;;;;10.07;5.93;;;17.40;99.90;;;;;;5068833;28;20176;-72
2023/10/02 06:37:16;;;;;;;11.07;6.05;;;17.40;99.90;;;;;;5073162;28;20205;-73
2023/10/02 06:40:04;;;;;;;10.90;5.63;;;17.50;99.90;;;;;;5058394;28;20236;-72
2023/10/02 06:42:31;;;;;;;10.95;6.25;;;17.50;99.90;;;;;;5057404;28;20193;-72
2023/10/02 06:45:01;;;;;;;11.20;6.50;;;17.60;99.90;;;;;;5057633;28;20177;-69
2023/10/02 06:47:29;;;;;;;11.85;6.55;;;17.60;99.90;;;;;;5077299;28;20165;-72
2023/10/02 06:50:03;;;;;;;10.65;6.30;;;17.60;99.90;;;;;;5077327;28;20204;-71
2023/10/02 06:52:38;;;;;;;11.98;7.00;;;17.70;99.90;;;;;;5074725;28;20164;-71
2023/10/02 06:55:11;;;;;;;12.40;6.90;;;17.70;99.90;;;;;;5076880;28;20251;-72
2023/10/02 06:57:49;;;;;;;14.05;7.28;;;17.70;99.90;;;;;;5077118;28;20176;-72
2023/10/02 07:00:19;;;;;;;11.65;6.65;;;17.80;99.90;;;;;;5076833;28;20184;-72
2023/10/02 07:03:03;;;;;;;12.80;7.13;;;17.80;99.90;;;;;;5076838;28;20181;-72
2023/10/02 07:05:34;;;;;;;10.13;6.65;;;17.80;99.90;;;;;;5093383;28;20173;-72
2023/10/02 07:11:10;;;;;;;16.50;6.90;;;18.00;99.90;;;;;;5054978;28;20185;-71
2023/10/02 07:13:50;;;;;;;10.95;6.82;;;18.00;99.90;;;;;;5038756;28;20207;-73
2023/10/02 07:16:17;;;;;;;13.20;6.85;;;18.10;99.90;;;;;;5059442;28;20182;-73
2023/10/02 07:18:49;;;;;;;13.00;6.60;;;18.10;99.90;;;;;;5076545;28;20179;-73
2023/10/02 07:21:21;;;;;;;12.38;6.63;;;18.20;99.90;;;;;;5060254;28;20237;-74
2023/10/02 07:23:55;;;;;;;12.02;6.68;;;18.30;99.90;;;;;;5075063;28;20160;-71
2023/10/02 07:26:49;;;;;;;11.32;6.47;;;18.30;99.90;;;;;;5075398;28;20196;-73
2023/10/02 07:29:09;;;;;;;10.85;6.10;;;18.40;99.90;;;;;;5076914;28;20280;-73
2023/10/02 07:31:35;;;;;;;12.35;6.82;;;18.40;99.90;;;;;;5076052;28;20216;-72
2023/10/02 07:34:07;;;;;;;10.45;6.53;;;18.50;99.90;;;;;;5056584;28;20200;-72
2023/10/02 07:36:44;;;;;;;12.93;6.75;;;18.50;99.90;;;;;;5074333;28;20176;-72
2023/10/02 07:39:35;;;;;;;11.52;6.88;;;18.60;99.90;;;;;;5075000;28;20180;-72
2023/10/02 07:42:06;;;;;;;10.27;5.95;;;18.60;99.90;;;;;;5072017;28;20272;-71
2023/10/02 07:44:37;;;;;;;12.35;6.60;;;18.70;99.90;;;;;;5073495;28;20206;-65
2023/10/02 07:47:10;;;;;;;10.75;6.40;;;18.70;99.90;;;;;;5072527;28;20179;-74
2023/10/02 07:49:48;;;;;;;10.32;6.07;;;18.80;99.90;;;;;;5075539;28;20214;-72
2023/10/02 07:52:30;;;;;;;9.88;6.07;;;18.90;99.90;;;;;;5075153;28;20176;-70
2023/10/02 07:54:59;;;;;;;16.65;6.47;;;18.90;99.90;;;;;;5068333;28;20168;-71
2023/10/02 07:57:32;;;;;;;10.35;6.13;;;19.00;99.90;;;;;;5075025;28;20172;-71
2023/10/02 08:00:01;;;;;;;8.93;5.53;;;19.10;99.90;;;;;;5070330;28;20219;-75
2023/10/02 08:02:33;;;;;;;9.95;5.68;;;19.20;99.90;;;;;;5071795;28;20241;-72
2023/10/02 08:05:02;;;;;;;12.30;6.55;;;19.20;99.90;;;;;;5087401;28;20181;-69
2023/10/02 08:07:29;;;;;;;10.65;6.45;;;19.30;99.90;;;;;;5074664;28;20176;-73
2023/10/02 08:09:57;;;;;;;11.18;6.28;;;19.40;99.90;;;;;;5070459;28;20189;-75
2023/10/02 08:12:34;;;;;;;12.25;6.65;;;19.40;99.90;;;;;;5064135;28;20191;-75
2023/10/02 08:15:27;;;;;;;10.40;6.32;;;19.50;99.90;;;;;;5067921;28;20218;-74
2023/10/02 08:20:32;;;;;;;12.43;7.05;;;19.70;99.90;;;;;;5071141;28;20181;-71
2023/10/02 08:23:01;;;;;;;10.02;6.40;;;19.80;99.90;;;;;;5073476;28;20172;-76
2023/10/02 08:25:33;;;;;;;10.90;6.45;;;19.90;99.90;;;;;;5073086;28;20184;-74
2023/10/02 08:27:59;;;;;;;12.00;6.75;;;20.00;99.90;;;;;;5072881;28;20329;-74
2023/10/02 08:30:31;;;;;;;10.60;6.43;;;20.10;99.90;;;;;;5075027;28;20219;-78
2023/10/02 08:33:07;;;;;;;12.95;6.82;;;20.20;99.90;;;;;;5072976;28;20179;-77
2023/10/02 08:35:46;;;;;;;12.05;6.47;;;20.20;99.90;;;;;;5066562;28;20192;-74
2023/10/02 08:38:26;;;;;;;9.68;6.15;;;20.40;99.90;;;;;;5074889;28;20184;-73
2023/10/02 08:41:00;;;;;;;10.20;6.45;;;20.40;99.90;;;;;;5073046;28;20362;-74
2023/10/02 08:43:29;;;;;;;11.07;6.35;;;20.60;99.90;;;;;;5055368;28;20181;-75
2023/10/02 08:45:56;;;;;;;9.50;6.55;;;20.60;99.90;;;;;;5061494;28;20172;-79
2023/10/02 08:48:31;;;;;;;11.75;6.60;;;20.70;99.90;;;;;;5074884;28;20168;-81
2023/10/02 08:50:58;;;;;;;10.25;6.28;;;20.80;99.90;;;;;;5074581;28;20180;-80
2023/10/02 08:53:25;;;;;;;12.05;6.53;;;20.90;99.90;;;;;;5074122;28;20196;-74
2023/10/02 08:56:00;;;;;;;11.43;6.25;;;21.00;99.90;;;;;;5066280;28;20193;-77
2023/10/02 08:58:27;;;;;;;11.70;6.70;;;21.10;99.90;;;;;;5077348;28;20179;-75
2023/10/02 09:03:46;;;;;;;11.63;6.65;;;21.30;99.90;;;;;;5063526;28;20259;-77
2023/10/02 09:09:18;;;;;;;10.80;6.60;;;21.50;99.90;;;;;;5061610;28;20200;-79
2023/10/02 09:11:52;;;;;;;9.73;6.35;;;21.60;99.90;;;;;;5065760;28;20179;-79
2023/10/02 09:19:41;;;;;;;12.43;7.03;;;22.00;99.90;;;;;;5073924;28;20207;-76
2023/10/02 09:22:14;;;;;;;13.48;8.65;;;22.20;99.90;;;;;;5068675;28;20185;-80
2023/10/02 09:24:41;;;;;;;12.35;7.57;;;22.50;99.90;;;;;;5074722;28;20269;-80
2023/10/02 09:27:23;;;;;;;11.43;6.63;;;22.90;99.90;;;;;;5071424;28;20176;-73
2023/10/02 09:32:49;;;;;;;11.52;7.18;;;24.30;99.90;;;;;;5075441;28;20172;-73
2023/10/02 09:38:10;;;;;;;11.23;6.72;;;25.50;99.90;;;;;;5374715;22;20225;-72
2023/10/02 09:43:31;;;;;;;10.70;6.70;;;26.40;99.90;;;;;;5055253;28;20208;-72
2023/10/02 09:46:15;;;;;;;10.10;6.75;;;26.90;99.90;;;;;;5039015;28;20181;-73
2023/10/02 09:49:03;;;;;;;11.13;6.68;;;27.30;99.90;;;;;;5041159;28;20200;-73
2023/10/02 09:51:38;;;;;;;10.82;6.60;;;27.60;99.90;;;;;;5057214;28;20268;-73
2023/10/02 09:54:21;;;;;;;10.30;6.28;;;27.80;99.90;;;;;;5057845;28;20177;-72
2023/10/02 09:57:11;;;;;;;11.05;6.63;;;28.00;99.90;;;;;;5040617;28;20184;-72
2023/10/02 09:59:46;;;;;;;11.20;6.82;;;28.20;99.90;;;;;;5041415;28;20161;-72
2023/10/02 10:07:46;;;;;;;12.65;7.15;;;28.60;99.90;;;;;;5058272;28;20197;-70
2023/10/02 10:10:52;;;;;;;10.82;6.88;;;28.60;99.90;;;;;;5028230;28;20259;-73
2023/10/02 10:13:31;;;;;;;10.50;6.78;;;28.70;99.90;;;;;;5051029;28;20185;-73
2023/10/02 10:16:23;;;;;;;10.70;6.75;;;28.80;99.90;;;;;;5041181;28;20279;-74
2023/10/02 10:25:22;;;;;;;11.27;7.50;;;29.20;99.90;;;;;;5058073;28;20165;-74
2023/10/02 10:28:08;;;;;;;11.07;6.68;;;29.40;99.90;;;;;;5056918;28;20180;-73
2023/10/02 10:30:34;;;;;;;11.38;7.30;;;29.40;99.90;;;;;;5043823;28;20200;-73
2023/10/02 10:35:41;;;;;;;12.65;7.75;;;29.50;99.90;;;;;;5059172;28;20168;-74
2023/10/02 10:38:25;;;;;;;11.50;7.30;;;29.50;99.90;;;;;;5040523;28;20189;-73
2023/10/02 10:41:00;;;;;;;12.43;7.43;;;29.60;99.90;;;;;;5040626;28;20223;-72
2023/10/02 10:43:43;;;;;;;12.35;8.07;;;29.60;99.90;;;;;;5039954;28;20238;-71
2023/10/02 10:46:29;;;;;;;11.88;7.45;;;29.50;99.90;;;;;;5038972;28;20250;-73
2023/10/02 10:49:38;;;;;;;10.82;7.35;;;29.50;99.90;;;;;;5060025;28;20211;-73
2023/10/02 10:51:52;;;;;;;12.32;7.93;;;29.50;99.90;;;;;;5066614;28;20208;-71
2023/10/02 10:54:25;;;;;;;10.80;6.63;;;29.50;99.90;;;;;;5054769;28;20188;-66
2023/10/02 10:57:22;;;;;;;12.20;7.18;;;29.60;99.90;;;;;;5023580;28;20226;-68
2023/10/02 11:00:28;;;;;;;11.18;7.20;;;29.50;99.90;;;;;;5037888;28;20180;-68
2023/10/02 11:03:08;;;;;;;13.75;7.90;;;29.50;99.90;;;;;;5057737;28;20211;-68
2023/10/02 11:05:37;;;;;;;11.30;7.18;;;29.40;99.90;;;;;;5029106;28;20174;-68
2023/10/02 11:08:23;;;;;;;11.95;6.93;;;29.40;99.90;;;;;;5056086;28;20173;-69
2023/10/02 11:11:19;;;;;;;13.13;7.47;;;29.40;99.90;;;;;;5036913;28;20213;-69
2023/10/02 11:13:54;;;;;;;12.40;7.50;;;29.50;99.90;;;;;;5033871;28;20169;-68
2023/10/02 11:16:37;;;;;;;14.18;8.02;;;29.50;99.90;;;;;;5039729;28;20160;-69
2023/10/02 11:19:26;;;;;;;12.98;7.55;;;29.60;99.90;;;;;;5039081;28;20165;-68
2023/10/02 11:22:14;;;;;;;14.50;7.47;;;29.70;99.90;;;;;;5030763;28;20185;-68
2023/10/02 11:25:04;;;;;;;12.35;7.47;;;29.70;99.90;;;;;;5049134;28;20227;-69
2023/10/02 11:27:34;;;;;;;12.00;7.38;;;29.80;99.90;;;;;;5029811;28;20193;-68
2023/10/02 11:30:09;;;;;;;10.52;7.13;;;29.90;99.90;;;;;;5048943;28;20220;-72
2023/10/02 11:32:58;;;;;;;11.90;8.00;;;30.00;99.90;;;;;;5038938;28;20161;-74
2023/10/02 11:35:46;;;;;;;11.52;7.57;;;30.10;99.90;;;;;;5019245;28;20162;-70
2023/10/02 11:38:11;;;;;;;13.95;7.35;;;30.10;99.90;;;;;;5036099;28;20208;-71
2023/10/02 11:40:43;;;;;;;10.70;7.20;;;30.20;99.90;;;;;;5028897;28;20181;-75
2023/10/02 11:43:08;;;;;;;11.80;7.47;;;30.30;99.90;;;;;;5038910;28;20172;-74
2023/10/02 11:45:36;;;;;;;11.23;7.50;;;30.40;99.90;;;;;;5038350;28;20200;-71
2023/10/02 11:48:06;;;;;;;10.50;7.40;;;30.50;99.90;;;;;;5038795;28;20270;-69
2023/10/02 11:50:32;;;;;;;11.95;7.53;;;30.60;99.90;;;;;;5038953;28;20196;-71
2023/10/02 11:52:59;;;;;;;11.98;7.80;;;30.80;99.90;;;;;;5038773;28;20498;-72
2023/10/02 11:55:24;;;;;;;11.57;7.90;;;30.80;99.90;;;;;;5038865;28;20165;-73
2023/10/02 11:57:55;;;;;;;12.82;8.05;;;30.90;99.90;;;;;;5038923;28;20180;-71
2023/10/02 12:00:22;;;;;;;13.57;7.82;;;31.00;99.90;;;;;;5038473;28;20169;-72
2023/10/02 12:02:49;;;;;;;11.48;7.53;;;31.00;99.90;;;;;;5035153;28;20242;-72
2023/10/02 12:05:16;;;;;;;12.07;8.00;;;31.10;99.90;;;;;;5035217;28;20226;-72
2023/10/02 12:07:44;;;;;;;11.73;7.72;;;31.10;99.90;;;;;;5035301;28;20288;-69
2023/10/02 12:10:15;;;;;;;12.20;7.65;;;31.10;99.90;;;;;;5040056;28;20287;-71
2023/10/02 12:12:45;;;;;;;11.48;7.35;;;31.20;99.90;;;;;;5038164;28;20246;-70
2023/10/02 12:15:14;;;;;;;10.10;6.93;;;31.20;99.90;;;;;;5038325;28;20169;-71
2023/10/02 12:17:47;;;;;;;10.80;7.03;;;31.30;99.90;;;;;;5037876;28;20185;-70
2023/10/02 12:20:16;;;;;;;12.52;7.65;;;31.30;99.90;;;;;;5038318;28;20193;-70
2023/10/02 12:22:46;;;;;;;10.88;7.15;;;31.40;99.90;;;;;;5038398;28;20173;-69
2023/10/02 12:25:12;;;;;;;10.80;7.05;;;31.40;99.90;;;;;;5038098;28;20322;-71
2023/10/02 12:27:41;;;;;;;12.02;7.93;;;31.40;99.90;;;;;;5037758;28;20291;-70
2023/10/02 12:30:11;;;;;;;10.02;7.03;;;31.40;99.90;;;;;;5054040;28;20203;-77
2023/10/02 12:32:40;;;;;;;9.98;6.72;;;31.30;99.90;;;;;;5054575;28;20188;-77
2023/10/02 12:35:08;;;;;;;10.75;6.82;;;31.30;99.90;;;;;;5037980;28;20169;-75
2023/10/02 12:37:34;;;;;;;12.77;7.47;;;31.30;99.90;;;;;;5037671;28;20271;-74
2023/10/02 12:39:59;;;;;;;12.63;7.65;;;31.30;99.90;;;;;;5035244;28;20331;-72
2023/10/02 12:42:25;;;;;;;11.93;7.28;;;31.30;99.90;;;;;;5037588;28;20181;-73
2023/10/02 12:44:53;;;;;;;11.27;7.10;;;31.30;99.90;;;;;;5036121;28;20169;-73
2023/10/02 12:47:19;;;;;;;12.38;7.63;;;31.30;99.90;;;;;;5041399;28;20235;-73
2023/10/02 12:49:45;;;;;;;12.40;6.97;;;31.40;99.90;;;;;;5046401;28;20294;-73
2023/10/02 12:52:11;;;;;;;11.27;7.10;;;31.40;99.90;;;;;;5023525;28;20217;-73
2023/10/02 12:54:39;;;;;;;10.57;7.00;;;31.40;99.90;;;;;;5036281;28;20196;-72
2023/10/02 12:57:05;;;;;;;10.80;6.95;;;31.50;99.90;;;;;;5051749;28;20191;-71
2023/10/02 12:59:30;;;;;;;10.27;6.82;;;31.50;99.90;;;;;;5039277;28;20185;-78
2023/10/02 13:01:56;;;;;;;11.43;7.25;;;31.60;99.90;;;;;;5037801;28;20241;-75
2023/10/02 13:04:23;;;;;;;11.35;7.28;;;31.70;99.90;;;;;;5037337;28;20168;-76
2023/10/02 13:06:49;;;;;;;11.52;8.35;;;31.80;99.90;;;;;;5037473;28;20204;-75
2023/10/02 13:09:15;;;;;;;11.77;8.07;;;31.90;99.90;;;;;;5034166;28;20217;-76
2023/10/02 13:11:44;;;;;;;12.00;8.10;;;31.90;99.90;;;;;;5049597;28;20177;-75
2023/10/02 13:14:13;;;;;;;11.32;7.50;;;31.90;99.90;;;;;;5054360;28;20193;-75
2023/10/02 13:16:43;;;;;;;11.77;8.02;;;31.90;99.90;;;;;;5051145;28;20212;-74
2023/10/02 13:19:12;;;;;;;12.05;7.68;;;31.90;99.90;;;;;;5034232;28;20168;-74
2023/10/02 13:21:40;;;;;;;12.32;7.65;;;31.90;99.90;;;;;;5036176;28;20204;-73
2023/10/02 13:24:06;;;;;;;12.15;7.57;;;31.90;99.90;;;;;;5048278;28;20264;-74
2023/10/02 13:26:33;;;;;;;11.77;7.68;;;31.90;99.90;;;;;;5043680;28;20183;-74
2023/10/02 13:29:01;;;;;;;11.23;7.57;;;31.90;99.90;;;;;;5040664;28;20280;-74
2023/10/02 13:31:29;;;;;;;10.75;7.32;;;31.90;99.90;;;;;;5041507;28;20168;-74
2023/10/02 13:33:55;;;;;;;11.75;7.45;;;31.80;99.90;;;;;;5041313;28;20173;-74
2023/10/02 13:36:22;;;;;;;11.93;7.85;;;31.80;99.90;;;;;;5041209;28;20173;-73
2023/10/02 13:38:53;;;;;;;12.38;7.18;;;31.80;99.90;;;;;;5041275;28;20462;-72
2023/10/02 13:41:19;;;;;;;12.07;7.90;;;31.70;99.90;;;;;;5041331;28;20205;-75
2023/10/02 13:43:48;;;;;;;11.68;7.60;;;31.70;99.90;;;;;;5041200;28;20255;-74
2023/10/02 13:46:16;;;;;;;11.38;7.43;;;31.70;99.90;;;;;;5040367;28;20203;-73
2023/10/02 13:48:45;;;;;;;12.27;7.38;;;31.60;99.90;;;;;;5041081;28;20173;-72
2023/10/02 13:51:18;;;;;;;11.98;7.80;;;31.60;99.90;;;;;;5031846;28;20181;-74
2023/10/02 13:53:45;;;;;;;12.52;7.78;;;31.70;99.90;;;;;;5020965;28;20197;-73
2023/10/02 13:56:25;;;;;;;10.68;7.03;;;31.70;99.90;;;;;;5021112;28;20176;-72
2023/10/02 13:58:51;;;;;;;11.50;7.22;;;31.70;99.90;;;;;;5021297;28;20165;-73
2023/10/02 14:01:32;;;;;;;12.35;7.90;;;31.80;99.90;;;;;;5030587;28;20184;-73
2023/10/02 14:04:00;;;;;;;11.82;7.80;;;31.80;99.90;;;;;;5040659;28;20185;-74
2023/10/02 14:06:28;;;;;;;12.45;7.13;;;31.80;99.90;;;;;;5042695;28;20195;-73
2023/10/02 14:08:55;;;;;;;11.82;7.70;;;31.80;99.90;;;;;;5049292;28;20180;-72
2023/10/02 14:11:26;;;;;;;11.65;7.60;;;31.70;99.90;;;;;;5045441;28;20200;-73
2023/10/02 14:13:55;;;;;;;13.20;7.43;;;31.80;99.90;;;;;;5057268;28;20451;-71
2023/10/02 14:16:26;;;;;;;13.35;8.15;;;31.80;99.90;;;;;;5057284;28;20173;-71
2023/10/02 14:18:56;;;;;;;12.75;7.57;;;31.90;99.90;;;;;;5054217;28;20180;-73
2023/10/02 14:21:23;;;;;;;14.10;8.10;;;32.00;99.90;;;;;;5040477;28;20157;-73
2023/10/02 14:23:52;;;;;;;12.82;8.02;;;32.10;99.90;;;;;;5040427;28;20193;-73
2023/10/02 14:26:20;;;;;;;12.70;8.63;;;32.10;99.90;;;;;;5040443;28;20233;-74
2023/10/02 14:28:46;;;;;;;13.82;8.68;;;32.00;99.90;;;;;;5040185;28;20172;-73